Time;durP1;ratioP1;P1;durP2;ratioP2;P2;SDS_P1;SDS_P2;PMS_P1;PMS_P2;Temp;Humidity;BMP_temperature;BMP_pressure;BME280_temperature;BME280_humidity;BME280_pressure;Samples;Min_cycle;Max_cycle;Signal;HPM_P1;HPM_P2
2022/04/05 00:00:46;;;;;;;5.78;1.77;;;7.90;99.90;;;;;;4991568;28;20034;-49
2022/04/05 00:03:12;;;;;;;4.80;1.70;;;8.20;99.90;;;;;;4992946;28;20038;-48
2022/04/05 00:05:37;;;;;;;6.15;1.80;;;8.20;99.90;;;;;;4992056;28;20172;-49
2022/04/05 00:08:04;;;;;;;9.13;1.70;;;8.00;99.90;;;;;;4993282;28;20034;-48
2022/04/05 00:10:29;;;;;;;7.22;1.92;;;7.80;99.90;;;;;;4993109;28;20034;-46
2022/04/05 00:12:55;;;;;;;7.70;2.00;;;8.10;99.90;;;;;;4993110;28;20096;-48
2022/04/05 00:15:21;;;;;;;8.25;2.00;;;7.90;99.90;;;;;;4993077;28;20489;-48
2022/04/05 00:17:47;;;;;;;9.15;1.83;;;8.10;99.90;;;;;;4975537;28;20042;-48
2022/04/05 00:20:12;;;;;;;8.40;1.90;;;7.80;99.90;;;;;;4993213;28;20374;-50
2022/04/05 00:22:38;;;;;;;6.70;1.85;;;8.00;99.90;;;;;;4992955;28;20497;-47
2022/04/05 00:25:04;;;;;;;8.23;2.10;;;7.80;99.90;;;;;;4974953;28;20034;-49
2022/04/05 00:27:30;;;;;;;7.93;1.85;;;7.90;99.90;;;;;;4992763;28;20038;-49
2022/04/05 00:29:56;;;;;;;12.20;2.00;;;7.90;99.90;;;;;;4992853;28;20041;-51
2022/04/05 00:32:21;;;;;;;10.75;2.10;;;8.10;99.90;;;;;;4992517;28;20048;-48
2022/04/05 00:34:47;;;;;;;6.03;2.10;;;8.10;99.90;;;;;;4991069;28;20042;-49
2022/04/05 00:37:13;;;;;;;8.73;1.90;;;7.80;99.90;;;;;;4992770;28;20042;-47
2022/04/05 00:39:38;;;;;;;7.35;1.92;;;7.70;99.90;;;;;;4992883;28;20100;-50
2022/04/05 00:42:04;;;;;;;6.95;2.10;;;7.70;99.90;;;;;;4992443;28;20054;-48
2022/04/05 00:44:30;;;;;;;8.98;2.38;;;7.80;99.90;;;;;;4992756;28;20109;-46
2022/04/05 00:47:09;;;;;;;11.30;2.10;;;8.00;99.90;;;;;;4992631;28;20203;-47
2022/04/05 00:49:35;;;;;;;9.50;2.30;;;7.90;99.90;;;;;;4992525;28;20042;-47
2022/04/05 00:52:00;;;;;;;9.20;2.20;;;8.00;99.90;;;;;;4992619;28;20088;-47
2022/04/05 00:54:28;;;;;;;6.13;2.15;;;7.90;99.90;;;;;;4992618;28;20049;-48
2022/04/05 00:56:56;;;;;;;9.35;2.13;;;7.80;99.90;;;;;;4974884;28;20046;-47
2022/04/05 00:59:25;;;;;;;7.03;1.92;;;7.70;99.90;;;;;;4992199;28;20047;-48
2022/04/05 01:01:53;;;;;;;5.97;1.92;;;7.70;99.90;;;;;;4992033;28;20049;-48
2022/04/05 01:04:20;;;;;;;6.65;1.83;;;8.00;99.90;;;;;;4991641;28;20049;-46
2022/04/05 01:06:49;;;;;;;7.55;2.10;;;7.70;99.90;;;;;;4992200;28;20493;-48
2022/04/05 01:09:14;;;;;;;5.95;1.90;;;7.80;99.90;;;;;;4992132;28;20117;-48
2022/04/05 01:11:40;;;;;;;9.20;1.88;;;7.60;99.90;;;;;;4992218;28;20467;-47
2022/04/05 01:14:06;;;;;;;8.18;2.22;;;7.60;99.90;;;;;;4992055;28;20042;-47
2022/04/05 01:16:34;;;;;;;9.50;2.33;;;7.70;99.90;;;;;;4991907;28;20117;-50
2022/04/05 01:19:00;;;;;;;8.63;2.30;;;8.00;99.90;;;;;;4991732;28;20125;-49
2022/04/05 01:21:27;;;;;;;8.43;2.40;;;7.80;99.90;;;;;;4990682;28;20125;-50
2022/04/05 01:24:09;;;;;;;8.40;2.33;;;7.70;99.90;;;;;;4991905;28;20038;-49
2022/04/05 01:26:46;;;;;;;6.22;2.30;;;7.70;99.90;;;;;;4992001;28;20050;-46
2022/04/05 01:29:13;;;;;;;7.25;2.22;;;7.70;99.90;;;;;;4992035;28;20074;-44
2022/04/05 01:31:54;;;;;;;8.82;2.30;;;7.70;99.90;;;;;;4989861;28;20042;-45
2022/04/05 01:34:22;;;;;;;10.90;2.30;;;7.60;99.90;;;;;;4973205;28;20394;-48
2022/04/05 01:36:53;;;;;;;9.88;2.22;;;7.90;99.90;;;;;;4991088;28;20485;-48
2022/04/05 01:39:25;;;;;;;10.95;2.60;;;7.60;99.90;;;;;;4991345;28;20505;-47
2022/04/05 01:42:01;;;;;;;5.80;1.85;;;8.00;99.90;;;;;;4992439;28;20125;-49
2022/04/05 01:44:29;;;;;;;12.25;2.50;;;8.00;99.90;;;;;;5009740;28;20045;-48
2022/04/05 01:46:56;;;;;;;12.32;2.58;;;8.00;99.90;;;;;;4997217;28;20433;-50
2022/04/05 01:49:22;;;;;;;8.55;2.10;;;7.90;99.90;;;;;;4991190;28;20046;-44
2022/04/05 01:51:49;;;;;;;10.63;2.40;;;7.80;99.90;;;;;;4991041;28;20060;-46
2022/04/05 01:54:17;;;;;;;7.80;2.00;;;7.80;99.90;;;;;;4992847;28;20114;-47
2022/04/05 01:56:49;;;;;;;7.38;2.20;;;7.90;99.90;;;;;;5010853;28;20045;-44
2022/04/05 01:59:21;;;;;;;9.02;2.20;;;7.60;99.90;;;;;;5011078;28;20492;-46
2022/04/05 02:01:48;;;;;;;9.52;2.25;;;7.70;99.90;;;;;;4995314;28;20077;-45
2022/04/05 02:04:14;;;;;;;14.18;2.30;;;7.80;99.90;;;;;;4990777;28;20070;-47
2022/04/05 02:06:41;;;;;;;8.82;1.92;;;7.60;99.90;;;;;;4991168;28;20073;-48
2022/04/05 02:09:07;;;;;;;7.85;2.08;;;7.80;99.90;;;;;;4991227;28;20429;-47
2022/04/05 02:11:33;;;;;;;8.82;1.95;;;7.50;99.90;;;;;;4991003;28;20097;-46
2022/04/05 02:13:59;;;;;;;6.47;2.33;;;7.70;99.90;;;;;;4991195;28;20034;-50
2022/04/05 02:16:26;;;;;;;7.53;2.08;;;7.50;99.90;;;;;;4991045;28;20118;-47
2022/04/05 02:18:52;;;;;;;9.70;2.38;;;7.80;99.90;;;;;;4991204;28;20081;-47
2022/04/05 02:21:18;;;;;;;5.68;1.80;;;7.70;99.90;;;;;;4991063;28;20045;-49
2022/04/05 02:23:44;;;;;;;4.57;1.95;;;7.40;99.90;;;;;;4990841;28;20441;-48
2022/04/05 02:26:11;;;;;;;8.30;1.80;;;7.70;99.90;;;;;;4990603;28;20084;-47
2022/04/05 02:28:37;;;;;;;5.70;1.63;;;7.60;99.90;;;;;;4990784;28;20085;-48
2022/04/05 02:31:02;;;;;;;9.35;1.80;;;7.60;99.90;;;;;;4990866;28;20433;-48
2022/04/05 02:33:28;;;;;;;8.18;1.88;;;7.60;99.90;;;;;;4990958;28;20034;-50
2022/04/05 02:35:54;;;;;;;6.63;1.77;;;7.50;99.90;;;;;;4990639;28;20042;-49
2022/04/05 02:38:19;;;;;;;6.57;1.70;;;7.60;99.90;;;;;;4973278;28;20061;-47
2022/04/05 02:40:46;;;;;;;7.07;1.90;;;7.60;99.90;;;;;;4991020;28;20474;-48
2022/04/05 02:43:12;;;;;;;7.00;2.10;;;7.40;99.90;;;;;;4989724;28;20069;-46
2022/04/05 02:45:38;;;;;;;8.90;2.08;;;7.40;99.90;;;;;;4990594;28;20105;-48
2022/04/05 02:48:04;;;;;;;8.13;2.30;;;7.50;99.90;;;;;;4990615;28;20129;-47
2022/04/05 02:50:30;;;;;;;8.20;2.00;;;7.50;99.90;;;;;;4994651;28;20392;-45
2022/04/05 02:52:56;;;;;;;7.70;2.30;;;7.50;99.90;;;;;;4994584;28;20031;-46
2022/04/05 02:55:22;;;;;;;9.20;2.20;;;7.60;99.90;;;;;;4994226;28;20494;-50
2022/04/05 02:57:48;;;;;;;8.02;2.15;;;7.40;99.90;;;;;;4994545;28;20038;-47
2022/04/05 03:00:17;;;;;;;9.55;2.60;;;7.60;99.90;;;;;;4994504;28;20038;-48
2022/04/05 03:02:44;;;;;;;10.32;2.63;;;7.50;99.90;;;;;;4994550;28;20077;-52
2022/04/05 03:05:10;;;;;;;8.85;2.80;;;7.40;99.90;;;;;;4994160;28;20077;-47
2022/04/05 03:07:37;;;;;;;8.02;2.80;;;7.70;99.90;;;;;;4994405;28;20390;-48
2022/04/05 03:10:08;;;;;;;11.68;3.30;;;7.40;99.90;;;;;;4994173;28;20049;-50
2022/04/05 03:12:35;;;;;;;9.18;2.95;;;7.50;99.90;;;;;;4973309;28;20038;-46
2022/04/05 03:15:08;;;;;;;12.00;3.22;;;7.50;99.90;;;;;;4990862;28;20117;-48
2022/04/05 03:17:35;;;;;;;12.25;3.53;;;7.50;99.90;;;;;;4994375;28;20108;-48
2022/04/05 03:20:03;;;;;;;12.50;3.78;;;7.50;99.90;;;;;;4994079;28;20045;-49
2022/04/05 03:22:29;;;;;;;12.32;3.72;;;7.80;99.90;;;;;;4994187;28;20070;-47
2022/04/05 03:24:55;;;;;;;10.93;4.22;;;7.50;99.90;;;;;;4993797;28;20073;-49
2022/04/05 03:27:21;;;;;;;13.15;4.25;;;7.60;99.90;;;;;;4994169;28;20054;-47
2022/04/05 03:29:46;;;;;;;12.52;4.25;;;7.80;99.90;;;;;;4994324;28;20034;-46
2022/04/05 03:32:12;;;;;;;9.18;3.88;;;7.50;99.90;;;;;;4991951;28;20548;-51
2022/04/05 03:34:38;;;;;;;15.38;4.55;;;7.60;99.90;;;;;;4993388;28;20038;-47
2022/04/05 03:37:05;;;;;;;13.48;4.70;;;7.60;99.90;;;;;;4993725;28;20508;-45
2022/04/05 03:39:31;;;;;;;14.05;4.90;;;7.60;99.90;;;;;;4993745;28;20065;-49
2022/04/05 03:41:57;;;;;;;14.13;4.68;;;7.60;99.90;;;;;;4995379;28;20464;-46
2022/04/05 03:44:24;;;;;;;12.27;4.40;;;7.50;99.90;;;;;;5013053;28;21204;-46
2022/04/05 03:46:51;;;;;;;15.65;4.80;;;7.60;99.90;;;;;;5002215;28;20048;-49
2022/04/05 03:49:17;;;;;;;8.98;3.92;;;7.90;99.90;;;;;;4994423;28;20084;-48
2022/04/05 03:51:42;;;;;;;10.13;4.15;;;7.50;99.90;;;;;;5011985;28;20120;-46
2022/04/05 03:54:08;;;;;;;9.65;4.03;;;7.70;99.90;;;;;;5008186;28;20370;-50
2022/04/05 03:56:34;;;;;;;11.63;4.28;;;7.60;99.90;;;;;;4993158;28;20042;-47
2022/04/05 03:59:00;;;;;;;10.63;4.22;;;7.60;99.90;;;;;;4993125;28;20100;-48
2022/04/05 04:01:26;;;;;;;10.45;4.00;;;7.50;99.90;;;;;;4992188;28;20533;-49
2022/04/05 04:03:51;;;;;;;9.45;4.25;;;7.90;99.90;;;;;;4976726;28;20489;-49
2022/04/05 04:06:17;;;;;;;13.23;4.90;;;7.60;99.90;;;;;;4992531;28;20422;-51
2022/04/05 04:08:42;;;;;;;12.98;4.28;;;7.60;99.90;;;;;;5001293;28;20453;-49
2022/04/05 04:11:08;;;;;;;8.77;4.60;;;7.90;99.90;;;;;;5012346;28;20041;-48
2022/04/05 04:13:34;;;;;;;10.63;4.82;;;7.70;99.90;;;;;;5007469;28;20034;-47
2022/04/05 04:15:59;;;;;;;11.48;4.32;;;7.70;99.90;;;;;;4992931;28;20405;-50
2022/04/05 04:18:25;;;;;;;10.10;4.65;;;7.60;99.90;;;;;;4993234;28;20533;-48
2022/04/05 04:20:51;;;;;;;10.88;4.82;;;7.60;99.90;;;;;;4992541;28;20049;-45
2022/04/05 04:23:16;;;;;;;9.77;4.82;;;7.70;99.90;;;;;;4992868;28;20042;-46
2022/04/05 04:25:42;;;;;;;13.80;5.07;;;7.80;99.90;;;;;;4992723;28;20049;-46
2022/04/05 04:28:10;;;;;;;11.57;5.10;;;7.80;99.90;;;;;;4992995;28;20048;-46
2022/04/05 04:30:38;;;;;;;12.00;4.90;;;7.50;99.90;;;;;;4993032;28;20041;-53
2022/04/05 04:33:04;;;;;;;14.27;5.13;;;7.60;99.90;;;;;;4987486;28;20061;-45
2022/04/05 04:35:31;;;;;;;13.80;5.50;;;7.50;99.90;;;;;;5008650;28;20034;-45
2022/04/05 04:37:58;;;;;;;13.40;5.88;;;7.50;99.90;;;;;;4994058;28;20046;-47
2022/04/05 04:40:25;;;;;;;14.38;5.90;;;7.90;99.90;;;;;;5001799;28;20049;-50
2022/04/05 04:42:51;;;;;;;15.48;5.60;;;7.80;99.90;;;;;;5011450;28;20049;-45
2022/04/05 04:45:16;;;;;;;12.98;4.70;;;7.50;99.90;;;;;;4992417;28;20050;-46
2022/04/05 04:47:42;;;;;;;14.35;4.85;;;7.50;99.90;;;;;;4994368;28;20053;-47
2022/04/05 04:50:11;;;;;;;11.10;4.65;;;7.50;99.90;;;;;;4990443;28;20080;-46
2022/04/05 04:52:37;;;;;;;10.70;4.90;;;7.50;99.90;;;;;;4992397;28;20038;-47
2022/04/05 04:55:04;;;;;;;14.07;5.47;;;7.60;99.90;;;;;;4992174;28;20536;-47
2022/04/05 04:57:30;;;;;;;12.32;5.38;;;7.90;99.90;;;;;;4992320;28;20090;-49
2022/04/05 04:59:56;;;;;;;17.38;5.20;;;7.50;99.90;;;;;;4994379;28;20037;-49
2022/04/05 05:02:22;;;;;;;14.02;4.88;;;7.50;99.90;;;;;;4989913;28;20064;-47
2022/04/05 05:04:49;;;;;;;14.52;5.15;;;8.00;99.90;;;;;;4991337;28;20038;-48
2022/04/05 05:07:15;;;;;;;10.98;4.72;;;7.50;99.90;;;;;;4991971;28;20034;-48
2022/04/05 05:09:41;;;;;;;19.02;5.05;;;7.50;99.90;;;;;;4991674;28;20105;-48
2022/04/05 05:12:10;;;;;;;9.82;4.47;;;7.50;99.90;;;;;;4989663;28;20034;-45
2022/04/05 05:14:36;;;;;;;13.52;3.88;;;7.60;99.90;;;;;;4991982;28;20081;-49
2022/04/05 05:17:02;;;;;;;11.35;3.70;;;7.80;99.90;;;;;;4998486;28;20505;-48
2022/04/05 05:19:27;;;;;;;8.15;3.45;;;7.50;99.90;;;;;;5011110;28;20061;-51
2022/04/05 05:21:53;;;;;;;9.35;2.42;;;7.70;99.90;;;;;;4993606;28;20504;-50
2022/04/05 05:24:18;;;;;;;7.18;2.00;;;7.70;99.90;;;;;;4991764;28;20046;-50
2022/04/05 05:26:44;;;;;;;6.63;2.00;;;7.30;99.90;;;;;;4991748;28;20117;-45
2022/04/05 05:29:11;;;;;;;8.50;2.03;;;7.50;99.90;;;;;;4991521;28;20041;-46
2022/04/05 05:31:36;;;;;;;7.28;1.77;;;7.60;99.90;;;;;;4991351;28;20041;-49
2022/04/05 05:34:02;;;;;;;5.75;1.85;;;7.60;99.90;;;;;;4991185;28;20461;-48
2022/04/05 05:36:28;;;;;;;6.75;1.80;;;7.50;99.90;;;;;;4991274;28;20066;-48
2022/04/05 05:38:53;;;;;;;9.32;1.77;;;7.60;99.90;;;;;;4996437;28;20399;-47
2022/04/05 05:41:19;;;;;;;6.47;1.73;;;7.30;99.90;;;;;;5004834;28;20041;-47
2022/04/05 05:43:45;;;;;;;5.47;1.63;;;7.20;99.90;;;;;;4998826;28;20065;-48
2022/04/05 05:46:14;;;;;;;7.40;2.00;;;7.20;99.90;;;;;;5006638;28;20060;-48
2022/04/05 05:48:41;;;;;;;10.43;2.00;;;7.30;99.90;;;;;;5010287;28;20121;-47
2022/04/05 05:51:07;;;;;;;8.15;1.83;;;7.50;99.90;;;;;;5010670;28;20073;-46
2022/04/05 05:53:33;;;;;;;6.45;1.80;;;7.20;99.90;;;;;;5010556;28;20057;-45
2022/04/05 05:55:59;;;;;;;7.85;2.00;;;7.20;99.90;;;;;;5010083;28;20034;-48
2022/04/05 05:58:25;;;;;;;10.18;1.73;;;7.20;99.90;;;;;;5010621;28;20078;-46
2022/04/05 06:00:51;;;;;;;4.75;1.48;;;7.50;99.90;;;;;;5010367;28;20421;-46
2022/04/05 06:03:17;;;;;;;6.40;1.50;;;7.40;99.90;;;;;;5009861;28;20099;-48
2022/04/05 06:05:43;;;;;;;7.07;1.48;;;7.20;99.90;;;;;;5009872;28;20481;-47
2022/04/05 06:08:09;;;;;;;6.43;1.52;;;7.50;99.90;;;;;;5009939;28;20121;-48
2022/04/05 06:10:35;;;;;;;5.15;1.70;;;7.40;99.90;;;;;;5007757;28;20046;-46
2022/04/05 06:13:01;;;;;;;7.20;1.70;;;7.50;99.90;;;;;;5010095;28;20033;-47
2022/04/05 06:15:28;;;;;;;6.25;1.80;;;7.60;99.90;;;;;;5007772;28;20113;-48
2022/04/05 06:17:54;;;;;;;6.22;1.50;;;7.40;99.90;;;;;;5009187;28;20052;-51
2022/04/05 06:20:22;;;;;;;8.00;2.17;;;7.60;99.90;;;;;;5009220;28;20038;-47
2022/04/05 06:22:51;;;;;;;5.57;1.77;;;7.50;99.90;;;;;;5009469;28;20038;-51
2022/04/05 06:25:19;;;;;;;7.30;2.03;;;7.60;99.90;;;;;;5009953;28;20064;-45
2022/04/05 06:27:45;;;;;;;5.88;2.00;;;7.50;99.90;;;;;;5009992;28;20030;-48
2022/04/05 06:30:13;;;;;;;6.30;1.88;;;7.50;99.90;;;;;;5009764;28;20104;-47
2022/04/05 06:32:39;;;;;;;8.05;1.83;;;7.40;99.90;;;;;;5009958;28;20038;-49
2022/04/05 06:35:07;;;;;;;5.78;1.35;;;7.70;99.90;;;;;;5009480;28;20436;-48
2022/04/05 06:37:33;;;;;;;7.93;2.28;;;7.50;99.90;;;;;;5009730;28;20131;-46
2022/04/05 06:39:59;;;;;;;5.15;1.65;;;7.60;99.90;;;;;;5010017;28;20049;-46
2022/04/05 06:42:25;;;;;;;6.05;1.63;;;7.50;99.90;;;;;;5009602;28;20062;-49
2022/04/05 06:44:53;;;;;;;5.60;1.50;;;7.70;99.90;;;;;;5009501;28;20124;-49
2022/04/05 06:47:19;;;;;;;5.95;1.50;;;7.70;99.90;;;;;;5007077;28;20145;-50
2022/04/05 06:49:44;;;;;;;6.65;1.63;;;7.50;99.90;;;;;;5009141;28;20042;-46
2022/04/05 06:52:10;;;;;;;6.13;1.67;;;7.70;99.90;;;;;;5007875;28;20070;-44
2022/04/05 06:54:36;;;;;;;5.70;1.50;;;7.50;99.90;;;;;;5001764;28;20038;-47
2022/04/05 06:57:02;;;;;;;3.40;1.20;;;7.60;99.90;;;;;;5006218;28;20041;-49
2022/04/05 06:59:27;;;;;;;7.15;1.42;;;7.50;99.90;;;;;;4999245;28;20042;-49
2022/04/05 07:01:53;;;;;;;4.45;1.10;;;7.80;99.90;;;;;;5000454;28;20042;-49
2022/04/05 07:04:19;;;;;;;10.38;1.67;;;7.60;99.90;;;;;;5006318;28;20065;-46
2022/04/05 07:06:45;;;;;;;4.32;1.00;;;7.80;99.90;;;;;;5008551;28;20045;-47
2022/04/05 07:09:10;;;;;;;3.53;1.25;;;7.40;99.90;;;;;;4993760;28;20038;-47
2022/04/05 07:11:37;;;;;;;3.63;1.30;;;7.60;99.90;;;;;;5002336;28;20026;-48
2022/04/05 07:14:03;;;;;;;8.23;1.73;;;7.80;99.90;;;;;;4991858;28;20075;-47
2022/04/05 07:16:28;;;;;;;5.85;1.90;;;7.90;99.90;;;;;;4999738;28;20073;-47
2022/04/05 07:18:54;;;;;;;7.38;1.92;;;7.90;99.90;;;;;;5001394;28;20126;-49
2022/04/05 07:21:20;;;;;;;5.97;1.60;;;7.90;99.90;;;;;;5001885;28;20124;-47
2022/04/05 07:23:50;;;;;;;9.05;2.00;;;7.60;99.90;;;;;;4988904;28;20419;-49
2022/04/05 07:26:16;;;;;;;5.03;1.20;;;7.90;99.90;;;;;;5005317;28;20629;-49
2022/04/05 07:28:41;;;;;;;8.93;1.55;;;7.90;99.90;;;;;;5004309;28;20423;-47
2022/04/05 07:31:07;;;;;;;7.47;1.70;;;7.80;99.90;;;;;;5008119;28;20042;-51
2022/04/05 07:33:33;;;;;;;2.78;1.08;;;7.70;99.90;;;;;;4996831;28;20081;-49
2022/04/05 07:35:59;;;;;;;6.10;1.50;;;7.70;99.90;;;;;;4996154;28;20117;-46
2022/04/05 07:38:24;;;;;;;4.05;1.30;;;7.60;99.90;;;;;;5005630;28;20037;-46
2022/04/05 07:40:52;;;;;;;4.32;1.50;;;7.90;99.90;;;;;;4995030;28;20045;-48
2022/04/05 07:43:28;;;;;;;6.80;1.70;;;7.90;99.90;;;;;;4983898;28;20156;-47
2022/04/05 07:45:56;;;;;;;5.20;1.40;;;7.80;99.90;;;;;;5004784;28;20045;-47
2022/04/05 07:48:26;;;;;;;5.80;1.35;;;7.80;99.90;;;;;;4978930;28;20073;-46
2022/04/05 07:50:52;;;;;;;5.40;1.40;;;8.10;99.90;;;;;;4993921;28;20048;-48
2022/04/05 07:53:17;;;;;;;5.15;1.30;;;8.10;99.90;;;;;;5001339;28;20370;-48
2022/04/05 07:55:46;;;;;;;9.57;1.70;;;8.10;99.90;;;;;;5003200;28;20041;-48
2022/04/05 07:58:12;;;;;;;5.55;1.60;;;8.10;99.90;;;;;;4993999;28;20466;-47
2022/04/05 08:00:38;;;;;;;4.88;1.80;;;7.90;99.90;;;;;;4990492;28;20117;-49
2022/04/05 08:03:04;;;;;;;7.05;2.90;;;7.90;99.90;;;;;;4981630;28;20553;-47
2022/04/05 08:05:30;;;;;;;6.88;3.47;;;8.10;99.90;;;;;;4996214;28;20046;-46
2022/04/05 08:07:56;;;;;;;10.75;3.30;;;8.20;99.90;;;;;;4996705;28;20046;-48
2022/04/05 08:10:23;;;;;;;8.02;3.47;;;8.00;99.90;;;;;;5002726;28;20034;-45
2022/04/05 08:12:50;;;;;;;7.25;3.58;;;8.00;99.90;;;;;;4982405;28;20482;-46
2022/04/05 08:15:21;;;;;;;6.32;3.10;;;8.20;99.90;;;;;;4985928;28;20046;-48
2022/04/05 08:17:47;;;;;;;9.65;3.40;;;7.90;99.90;;;;;;5004282;28;20050;-50
2022/04/05 08:20:15;;;;;;;7.55;3.42;;;7.90;99.90;;;;;;5000011;28;20060;-46
2022/04/05 08:22:41;;;;;;;8.10;2.97;;;8.10;99.90;;;;;;4994596;28;20044;-48
2022/04/05 08:25:09;;;;;;;7.88;3.03;;;8.30;99.90;;;;;;5001541;28;20052;-47
2022/04/05 08:27:35;;;;;;;6.65;3.08;;;8.00;99.90;;;;;;4977317;28;20047;-49
2022/04/05 08:30:05;;;;;;;9.10;3.40;;;8.30;99.90;;;;;;4999299;28;20099;-47
2022/04/05 08:32:31;;;;;;;12.15;4.00;;;8.50;99.90;;;;;;5002031;28;20030;-46
2022/04/05 08:34:56;;;;;;;9.95;3.72;;;8.30;99.90;;;;;;4999436;28;20041;-46
2022/04/05 08:37:22;;;;;;;7.97;3.65;;;8.20;99.90;;;;;;5002896;28;20042;-45
2022/04/05 08:39:49;;;;;;;8.30;3.70;;;8.50;99.90;;;;;;5002470;28;20030;-44
2022/04/05 08:42:15;;;;;;;8.32;3.47;;;8.50;99.90;;;;;;5002750;28;20037;-45
2022/04/05 08:44:44;;;;;;;11.38;4.07;;;8.40;99.90;;;;;;5002612;28;20132;-46
2022/04/05 08:47:12;;;;;;;10.88;4.25;;;8.60;99.90;;;;;;4993220;28;20490;-49
2022/04/05 08:49:38;;;;;;;14.27;4.50;;;8.60;99.90;;;;;;4991356;28;20108;-45
2022/04/05 08:52:04;;;;;;;11.60;4.50;;;8.60;99.90;;;;;;4999683;28;20034;-44
2022/04/05 08:54:31;;;;;;;14.10;5.57;;;8.80;99.90;;;;;;5001369;28;20046;-47
2022/04/05 08:56:57;;;;;;;12.27;5.15;;;8.80;99.90;;;;;;5005869;28;20486;-47
2022/04/05 08:59:23;;;;;;;14.50;5.78;;;8.80;99.90;;;;;;4997135;28;20042;-51
2022/04/05 09:01:52;;;;;;;13.13;5.65;;;8.90;99.90;;;;;;5001150;28;20057;-49
2022/04/05 09:04:17;;;;;;;15.48;5.80;;;8.70;99.90;;;;;;5004115;28;20053;-49
2022/04/05 09:06:43;;;;;;;13.82;5.82;;;8.90;99.90;;;;;;5003806;28;20100;-48
2022/04/05 09:09:13;;;;;;;16.65;6.90;;;9.00;99.90;;;;;;4987937;28;20513;-48
2022/04/05 09:11:48;;;;;;;13.35;6.60;;;9.00;99.90;;;;;;5008146;28;20041;-48
2022/04/05 09:14:21;;;;;;;17.08;6.97;;;9.10;99.90;;;;;;5010361;28;20498;-48
2022/04/05 09:16:47;;;;;;;20.58;8.02;;;9.10;99.90;;;;;;5002984;28;20037;-45
2022/04/05 09:19:14;;;;;;;22.35;9.35;;;8.90;99.90;;;;;;4983626;28;20050;-48
2022/04/05 09:21:54;;;;;;;20.08;8.80;;;9.40;99.90;;;;;;5000778;28;20374;-50
2022/04/05 09:24:20;;;;;;;32.88;12.05;;;9.10;99.90;;;;;;5008109;28;20034;-46
2022/04/05 09:26:46;;;;;;;26.70;12.38;;;9.60;99.90;;;;;;5008764;28;20441;-46
2022/04/05 09:29:12;;;;;;;31.23;12.75;;;9.20;99.90;;;;;;5009018;28;20477;-46
2022/04/05 09:31:48;;;;;;;27.08;12.30;;;9.40;99.90;;;;;;5009783;28;20065;-50
2022/04/05 09:34:21;;;;;;;34.20;13.38;;;9.20;99.90;;;;;;5008356;28;20037;-47
2022/04/05 09:36:49;;;;;;;32.97;14.00;;;9.70;99.90;;;;;;4996391;28;20511;-48
2022/04/05 09:39:17;;;;;;;27.55;12.57;;;9.50;99.90;;;;;;5007160;28;20420;-46
2022/04/05 09:41:47;;;;;;;25.25;12.77;;;9.70;99.90;;;;;;4991376;28;20081;-47
2022/04/05 09:44:23;;;;;;;26.92;13.10;;;10.20;99.90;;;;;;5006649;28;20497;-46
2022/04/05 09:46:52;;;;;;;20.13;10.45;;;10.00;99.90;;;;;;5005813;28;20492;-48
2022/04/05 09:49:18;;;;;;;20.63;10.32;;;10.20;99.90;;;;;;5003698;28;20038;-45
2022/04/05 09:51:46;;;;;;;13.77;8.13;;;10.40;99.90;;;;;;5008513;28;20044;-46
2022/04/05 09:54:27;;;;;;;13.68;8.27;;;10.20;99.90;;;;;;5004949;28;20038;-44
2022/04/05 09:57:13;;;;;;;15.30;8.25;;;10.30;99.90;;;;;;5003072;28;20053;-45
2022/04/05 09:59:43;;;;;;;13.55;7.85;;;10.50;99.90;;;;;;5000010;28;20128;-45
2022/04/05 10:02:12;;;;;;;11.98;7.18;;;10.70;99.90;;;;;;5005513;28;20073;-46
2022/04/05 10:05:05;;;;;;;13.20;7.50;;;10.60;99.90;;;;;;5004449;28;20125;-46
2022/04/05 10:07:32;;;;;;;11.13;6.70;;;10.40;99.90;;;;;;4989797;28;20104;-46
2022/04/05 10:09:59;;;;;;;13.43;7.72;;;10.60;99.90;;;;;;4992064;28;20061;-48
2022/04/05 10:12:26;;;;;;;11.77;7.38;;;10.60;99.90;;;;;;5003724;28;20147;-46
2022/04/05 10:14:52;;;;;;;11.02;7.50;;;10.90;99.90;;;;;;5009810;28;20037;-47
2022/04/05 10:17:20;;;;;;;13.88;7.10;;;11.10;99.90;;;;;;5007220;28;20378;-46
2022/04/05 10:19:49;;;;;;;11.80;6.38;;;10.90;99.90;;;;;;4992063;28;20039;-50
2022/04/05 10:22:17;;;;;;;13.07;6.22;;;10.70;99.90;;;;;;4999986;28;20089;-49
2022/04/05 10:24:44;;;;;;;12.15;6.65;;;10.80;99.90;;;;;;5001724;28;20030;-46
2022/04/05 10:27:10;;;;;;;11.43;6.80;;;10.80;99.90;;;;;;5001334;28;20042;-49
2022/04/05 10:29:37;;;;;;;8.30;5.82;;;10.70;99.90;;;;;;5000106;28;20034;-48
2022/04/05 10:32:44;;;;;;;13.35;6.53;;;10.40;99.90;;;;;;5001238;28;20042;-48
2022/04/05 10:35:11;;;;;;;18.23;6.43;;;10.70;99.90;;;;;;4916302;29;20031;-46
2022/04/05 10:37:38;;;;;;;15.70;6.90;;;10.70;99.90;;;;;;4914027;29;20043;-47
2022/04/05 10:40:05;;;;;;;12.75;7.05;;;10.80;99.90;;;;;;4957884;28;20053;-49
2022/04/05 10:42:43;;;;;;;12.48;6.43;;;10.80;99.90;;;;;;4984060;28;20045;-47
2022/04/05 10:45:18;;;;;;;12.70;7.07;;;10.90;99.90;;;;;;5001080;28;20038;-52
2022/04/05 10:48:25;;;;;;;17.90;7.05;;;10.70;99.90;;;;;;4999836;28;20049;-50
2022/04/05 10:51:00;;;;;;;21.05;7.32;;;10.90;99.90;;;;;;4934652;28;20066;-49
2022/04/05 10:56:28;;;;;;;16.73;8.02;;;10.80;99.90;;;;;;4982545;28;20045;-50
2022/04/05 10:58:54;;;;;;;18.30;7.78;;;10.60;99.90;;;;;;4992003;28;20034;-44
2022/04/05 11:01:24;;;;;;;13.80;7.47;;;10.70;99.90;;;;;;4985124;28;20069;-45
2022/04/05 11:04:14;;;;;;;19.75;8.00;;;10.80;99.90;;;;;;5009147;28;20045;-48
2022/04/05 11:06:58;;;;;;;19.85;8.35;;;10.80;99.90;;;;;;5007525;28;20041;-50
2022/04/05 11:09:30;;;;;;;16.55;8.60;;;10.90;99.90;;;;;;5008852;28;20481;-49
2022/04/05 11:11:57;;;;;;;21.08;9.25;;;10.60;99.90;;;;;;5013366;28;20060;-48
2022/04/05 11:14:42;;;;;;;25.50;10.00;;;10.90;99.90;;;;;;5014038;28;20092;-47
2022/04/05 11:17:09;;;;;;;23.77;9.75;;;10.90;99.90;;;;;;5011187;28;20366;-49
2022/04/05 11:19:37;;;;;;;28.60;10.80;;;10.80;99.90;;;;;;5013957;28;20064;-47
2022/04/05 11:22:05;;;;;;;18.40;9.00;;;11.10;99.90;;;;;;5013745;28;20038;-48
2022/04/05 11:25:05;;;;;;;23.45;10.00;;;10.90;99.90;;;;;;5013875;28;20045;-47
2022/04/05 11:27:35;;;;;;;21.58;9.45;;;11.10;99.90;;;;;;5009158;28;20519;-49
2022/04/05 11:30:28;;;;;;;23.10;8.68;;;11.10;99.90;;;;;;5013272;28;20042;-50
2022/04/05 11:33:06;;;;;;;19.48;8.27;;;11.10;99.90;;;;;;4995649;28;20037;-49
2022/04/05 11:35:36;;;;;;;20.02;8.95;;;11.30;99.90;;;;;;5003804;28;20072;-47
2022/04/05 11:38:03;;;;;;;21.13;8.45;;;11.20;99.90;;;;;;5010952;28;20038;-47
2022/04/05 11:40:32;;;;;;;18.25;9.20;;;11.10;99.90;;;;;;5011709;28;20053;-46
2022/04/05 11:43:02;;;;;;;16.85;8.52;;;11.40;99.90;;;;;;5011102;28;20058;-48
2022/04/05 11:45:29;;;;;;;22.10;8.98;;;11.40;99.90;;;;;;4992090;28;20095;-47
2022/04/05 11:47:56;;;;;;;22.85;9.20;;;11.30;99.90;;;;;;5011462;28;21242;-49
2022/04/05 11:50:23;;;;;;;17.60;8.40;;;11.40;99.90;;;;;;5010637;28;20401;-47
2022/04/05 11:52:49;;;;;;;19.90;8.98;;;11.30;99.90;;;;;;5011375;28;20030;-46
2022/04/05 11:58:04;;;;;;;18.27;7.88;;;11.30;99.90;;;;;;5009659;28;20049;-45
2022/04/05 12:00:30;;;;;;;18.88;8.40;;;11.50;99.90;;;;;;5011998;28;20614;-46
2022/04/05 12:03:03;;;;;;;20.48;7.82;;;11.40;99.90;;;;;;5010995;28;20074;-44
2022/04/05 12:05:46;;;;;;;16.88;7.90;;;11.30;99.90;;;;;;5011054;28;20045;-48
2022/04/05 12:08:13;;;;;;;16.60;8.23;;;11.20;99.90;;;;;;5010465;28;20038;-46
2022/04/05 12:10:41;;;;;;;23.85;8.98;;;11.30;99.90;;;;;;5011248;28;20072;-45
2022/04/05 12:13:07;;;;;;;21.10;8.75;;;11.30;99.90;;;;;;5008541;28;20069;-50
2022/04/05 12:15:35;;;;;;;25.30;8.82;;;11.40;99.90;;;;;;5007697;28;20041;-46
2022/04/05 12:18:19;;;;;;;20.35;10.05;;;11.30;99.90;;;;;;5011955;28;20409;-46
2022/04/05 12:21:05;;;;;;;18.42;9.23;;;11.30;99.90;;;;;;5010444;28;20034;-48
2022/04/05 12:23:37;;;;;;;19.38;9.05;;;11.50;99.90;;;;;;5009188;28;20073;-46
2022/04/05 12:26:06;;;;;;;26.42;9.10;;;11.30;99.90;;;;;;5010228;28;20041;-48
2022/04/05 12:28:33;;;;;;;22.08;8.32;;;11.50;99.90;;;;;;4993804;28;20033;-46
2022/04/05 12:31:19;;;;;;;16.23;7.60;;;11.40;99.90;;;;;;5009779;28;20117;-45
2022/04/05 12:34:05;;;;;;;22.50;8.13;;;11.50;99.90;;;;;;5010840;28;20528;-46
2022/04/05 12:36:35;;;;;;;17.42;7.68;;;11.30;99.90;;;;;;5009431;28;20049;-46
2022/04/05 12:39:17;;;;;;;20.58;8.40;;;11.50;99.90;;;;;;5004657;28;20057;-50
2022/04/05 12:41:42;;;;;;;15.38;7.45;;;11.80;99.90;;;;;;5010942;28;20116;-50
2022/04/05 12:44:11;;;;;;;15.80;8.20;;;11.60;99.90;;;;;;4992599;28;20189;-50
2022/04/05 12:46:43;;;;;;;17.35;8.27;;;11.70;99.90;;;;;;5010114;28;20468;-46
2022/04/05 12:49:20;;;;;;;18.25;8.13;;;11.60;99.90;;;;;;5011208;28;20037;-48
2022/04/05 12:51:47;;;;;;;19.08;8.50;;;11.60;99.90;;;;;;5008485;28;20084;-47
2022/04/05 12:54:28;;;;;;;16.55;8.30;;;11.40;99.90;;;;;;5003827;28;20034;-45
2022/04/05 12:57:15;;;;;;;20.25;7.97;;;11.30;99.90;;;;;;4995099;28;20041;-47
2022/04/05 12:59:42;;;;;;;16.20;8.00;;;11.50;99.90;;;;;;5002740;28;20038;-49